sensor_id;sensor_type;location;lat;lon;timestamp;pressure;altitude;pressure_sealevel;temperature;humidity
70758;BME280;59316;52.964;7.102;2022-07-24T00:00:53;101923.00;;;11.61;100.00
70758;BME280;59316;52.964;7.102;2022-07-24T00:06:13;101924.22;;;11.55;100.00
70758;BME280;59316;52.964;7.102;2022-07-24T00:11:32;101923.16;;;11.42;100.00
70758;BME280;59316;52.964;7.102;2022-07-24T00:16:52;101936.13;;;11.29;100.00
70758;BME280;59316;52.964;7.102;2022-07-24T00:22:11;101932.66;;;11.28;100.00
70758;BME280;59316;52.964;7.102;2022-07-24T00:27:31;101934.69;;;11.23;100.00
70758;BME280;59316;52.964;7.102;2022-07-24T00:32:51;101927.66;;;11.24;100.00
70758;BME280;59316;52.964;7.102;2022-07-24T00:38:10;101921.31;;;11.28;100.00
70758;BME280;59316;52.964;7.102;2022-07-24T00:43:30;101916.19;;;11.09;100.00
70758;BME280;59316;52.964;7.102;2022-07-24T00:48:50;101921.88;;;11.17;100.00
70758;BME280;59316;52.964;7.102;2022-07-24T00:54:10;101913.03;;;11.02;100.00
70758;BME280;59316;52.964;7.102;2022-07-24T00:59:31;101910.00;;;11.10;100.00
70758;BME280;59316;52.964;7.102;2022-07-24T01:04:50;101907.72;;;11.20;100.00
70758;BME280;59316;52.964;7.102;2022-07-24T01:10:10;101902.66;;;11.32;100.00
70758;BME280;59316;52.964;7.102;2022-07-24T01:15:30;101902.66;;;11.32;100.00
70758;BME280;59316;52.964;7.102;2022-07-24T01:20:50;101891.56;;;11.27;100.00
70758;BME280;59316;52.964;7.102;2022-07-24T01:26:10;101895.88;;;11.28;100.00
70758;BME280;59316;52.964;7.102;2022-07-24T01:31:29;101890.81;;;11.25;100.00
70758;BME280;59316;52.964;7.102;2022-07-24T01:36:49;101888.34;;;11.38;100.00
70758;BME280;59316;52.964;7.102;2022-07-24T01:42:09;101884.13;;;11.36;100.00
70758;BME280;59316;52.964;7.102;2022-07-24T01:47:28;101882.06;;;11.25;100.00
70758;BME280;59316;52.964;7.102;2022-07-24T01:52:47;101886.97;;;11.15;100.00
70758;BME280;59316;52.964;7.102;2022-07-24T01:58:07;101884.50;;;11.12;100.00
70758;BME280;59316;52.964;7.102;2022-07-24T02:03:27;101876.97;;;11.06;100.00
70758;BME280;59316;52.964;7.102;2022-07-24T02:08:46;101878.66;;;11.07;100.00
70758;BME280;59316;52.964;7.102;2022-07-24T02:14:06;101878.97;;;11.01;100.00
70758;BME280;59316;52.964;7.102;2022-07-24T02:19:25;101870.28;;;11.00;100.00
70758;BME280;59316;52.964;7.102;2022-07-24T02:24:45;101872.91;;;11.16;100.00
70758;BME280;59316;52.964;7.102;2022-07-24T02:30:07;101864.59;;;11.08;100.00
70758;BME280;59316;52.964;7.102;2022-07-24T02:35:28;101860.28;;;11.07;100.00
70758;BME280;59316;52.964;7.102;2022-07-24T02:40:48;101859.78;;;11.16;100.00
70758;BME280;59316;52.964;7.102;2022-07-24T02:46:07;101857.25;;;11.30;100.00
70758;BME280;59316;52.964;7.102;2022-07-24T02:51:27;101846.47;;;11.35;100.00
70758;BME280;59316;52.964;7.102;2022-07-24T02:56:46;101852.16;;;11.27;100.00
70758;BME280;59316;52.964;7.102;2022-07-24T03:02:06;101856.81;;;11.22;100.00
70758;BME280;59316;52.964;7.102;2022-07-24T03:07:25;101845.22;;;11.10;100.00
70758;BME280;59316;52.964;7.102;2022-07-24T03:12:45;101849.00;;;11.05;100.00
70758;BME280;59316;52.964;7.102;2022-07-24T03:18:05;101848.56;;;11.12;100.00
70758;BME280;59316;52.964;7.102;2022-07-24T03:23:24;101843.59;;;11.24;100.00
70758;BME280;59316;52.964;7.102;2022-07-24T03:28:44;101837.75;;;11.35;100.00
70758;BME280;59316;52.964;7.102;2022-07-24T03:34:04;101831.41;;;11.39;100.00
70758;BME280;59316;52.964;7.102;2022-07-24T03:39:23;101839.88;;;11.44;100.00
70758;BME280;59316;52.964;7.102;2022-07-24T03:44:43;101831.81;;;11.47;100.00
70758;BME280;59316;52.964;7.102;2022-07-24T03:50:03;101827.16;;;11.52;100.00
70758;BME280;59316;52.964;7.102;2022-07-24T03:55:23;101833.31;;;11.67;100.00
70758;BME280;59316;52.964;7.102;2022-07-24T04:00:43;101826.16;;;11.85;100.00
70758;BME280;59316;52.964;7.102;2022-07-24T04:06:03;101819.84;;;12.04;100.00
70758;BME280;59316;52.964;7.102;2022-07-24T04:11:24;101820.19;;;12.28;100.00
70758;BME280;59316;52.964;7.102;2022-07-24T04:16:44;101812.59;;;12.52;100.00
70758;BME280;59316;52.964;7.102;2022-07-24T04:22:04;101809.47;;;12.74;100.00
70758;BME280;59316;52.964;7.102;2022-07-24T04:27:24;101802.03;;;12.95;100.00
70758;BME280;59316;52.964;7.102;2022-07-24T04:32:44;101787.78;;;13.13;100.00
70758;BME280;59316;52.964;7.102;2022-07-24T04:38:03;101790.59;;;13.24;100.00
70758;BME280;59316;52.964;7.102;2022-07-24T04:43:22;101789.16;;;13.33;100.00
70758;BME280;59316;52.964;7.102;2022-07-24T04:48:42;101797.53;;;13.39;100.00
70758;BME280;59316;52.964;7.102;2022-07-24T04:54:02;101804.00;;;13.48;100.00
70758;BME280;59316;52.964;7.102;2022-07-24T04:59:21;101798.22;;;13.56;100.00
70758;BME280;59316;52.964;7.102;2022-07-24T05:04:41;101804.28;;;13.71;100.00
70758;BME280;59316;52.964;7.102;2022-07-24T05:10:01;101800.94;;;14.07;100.00
70758;BME280;59316;52.964;7.102;2022-07-24T05:15:21;101803.94;;;14.54;100.00
70758;BME280;59316;52.964;7.102;2022-07-24T05:20:41;101795.31;;;15.27;100.00
70758;BME280;59316;52.964;7.102;2022-07-24T05:26:01;101800.47;;;15.52;100.00
70758;BME280;59316;52.964;7.102;2022-07-24T05:31:20;101787.69;;;15.95;100.00
70758;BME280;59316;52.964;7.102;2022-07-24T05:36:40;101792.56;;;16.46;100.00
70758;BME280;59316;52.964;7.102;2022-07-24T05:41:59;101788.91;;;17.04;100.00
70758;BME280;59316;52.964;7.102;2022-07-24T05:47:19;101788.06;;;18.01;97.20
70758;BME280;59316;52.964;7.102;2022-07-24T05:52:39;101781.31;;;18.90;93.43
70758;BME280;59316;52.964;7.102;2022-07-24T05:57:59;101774.81;;;19.43;89.77
70758;BME280;59316;52.964;7.102;2022-07-24T06:03:19;101765.28;;;19.11;90.97
70758;BME280;59316;52.964;7.102;2022-07-24T06:08:39;101764.63;;;18.78;92.42
70758;BME280;59316;52.964;7.102;2022-07-24T06:13:58;101766.88;;;18.42;93.32
70758;BME280;59316;52.964;7.102;2022-07-24T06:19:18;101746.13;;;19.46;88.06
70758;BME280;59316;52.964;7.102;2022-07-24T06:24:37;101751.84;;;20.28;82.66
70758;BME280;59316;52.964;7.102;2022-07-24T06:29:57;101738.22;;;21.23;79.20
70758;BME280;59316;52.964;7.102;2022-07-24T06:35:16;101728.94;;;21.98;77.60
70758;BME280;59316;52.964;7.102;2022-07-24T06:40:36;101737.44;;;22.63;74.36
70758;BME280;59316;52.964;7.102;2022-07-24T06:45:55;101741.94;;;23.21;71.65
70758;BME280;59316;52.964;7.102;2022-07-24T06:51:15;101738.53;;;23.77;66.56
70758;BME280;59316;52.964;7.102;2022-07-24T06:56:34;101748.09;;;23.22;69.67
70758;BME280;59316;52.964;7.102;2022-07-24T07:01:54;101738.28;;;22.63;69.26
70758;BME280;59316;52.964;7.102;2022-07-24T07:07:14;101756.28;;;22.53;72.34
70758;BME280;59316;52.964;7.102;2022-07-24T07:12:34;101758.97;;;23.62;68.55
70758;BME280;59316;52.964;7.102;2022-07-24T07:17:54;101768.53;;;23.31;70.12
70758;BME280;59316;52.964;7.102;2022-07-24T07:23:13;101770.97;;;23.00;70.41
70758;BME280;59316;52.964;7.102;2022-07-24T07:28:33;101756.31;;;23.29;68.77
70758;BME280;59316;52.964;7.102;2022-07-24T07:33:53;101756.88;;;24.21;66.58
70758;BME280;59316;52.964;7.102;2022-07-24T07:39:12;101753.00;;;24.24;64.36
70758;BME280;59316;52.964;7.102;2022-07-24T07:44:32;101755.53;;;24.97;63.63
70758;BME280;59316;52.964;7.102;2022-07-24T07:49:51;101751.44;;;25.09;63.58
70758;BME280;59316;52.964;7.102;2022-07-24T07:55:11;101754.22;;;25.16;63.00
70758;BME280;59316;52.964;7.102;2022-07-24T08:00:31;101756.44;;;25.35;62.89
70758;BME280;59316;52.964;7.102;2022-07-24T08:05:51;101754.03;;;25.41;63.12
70758;BME280;59316;52.964;7.102;2022-07-24T08:11:11;101748.03;;;26.37;61.72
70758;BME280;59316;52.964;7.102;2022-07-24T08:16:31;101734.88;;;26.63;57.63
70758;BME280;59316;52.964;7.102;2022-07-24T08:21:50;101746.94;;;26.67;56.80
70758;BME280;59316;52.964;7.102;2022-07-24T08:27:10;101741.69;;;26.96;56.96
70758;BME280;59316;52.964;7.102;2022-07-24T08:32:30;101740.06;;;27.73;56.18
70758;BME280;59316;52.964;7.102;2022-07-24T08:37:50;101741.75;;;27.24;54.42
70758;BME280;59316;52.964;7.102;2022-07-24T08:43:10;101738.59;;;27.71;55.28
70758;BME280;59316;52.964;7.102;2022-07-24T08:48:30;101743.47;;;27.32;54.48
70758;BME280;59316;52.964;7.102;2022-07-24T08:53:50;101734.31;;;26.83;54.91
70758;BME280;59316;52.964;7.102;2022-07-24T08:59:20;101731.63;;;27.83;50.85
70758;BME280;59316;52.964;7.102;2022-07-24T09:04:42;101735.81;;;27.92;50.36
70758;BME280;59316;52.964;7.102;2022-07-24T09:10:09;101746.91;;;27.76;50.21
70758;BME280;59316;52.964;7.102;2022-07-24T09:15:43;101733.88;;;27.79;47.75
70758;BME280;59316;52.964;7.102;2022-07-24T09:21:14;101744.78;;;29.03;47.02
70758;BME280;59316;52.964;7.102;2022-07-24T09:26:55;101732.47;;;28.81;44.25
70758;BME280;59316;52.964;7.102;2022-07-24T09:32:22;101728.75;;;28.75;43.32
70758;BME280;59316;52.964;7.102;2022-07-24T09:37:53;101736.28;;;29.40;41.76
70758;BME280;59316;52.964;7.102;2022-07-24T09:43:26;101728.44;;;28.50;43.82
70758;BME280;59316;52.964;7.102;2022-07-24T09:48:56;101724.22;;;29.56;42.45
70758;BME280;59316;52.964;7.102;2022-07-24T09:54:30;101716.34;;;29.34;43.62
70758;BME280;59316;52.964;7.102;2022-07-24T09:59:57;101717.16;;;29.15;42.44
70758;BME280;59316;52.964;7.102;2022-07-24T10:05:24;101719.59;;;29.90;41.72
70758;BME280;59316;52.964;7.102;2022-07-24T10:10:47;101710.19;;;29.86;40.50
70758;BME280;59316;52.964;7.102;2022-07-24T10:21:31;101702.63;;;29.36;40.73
70758;BME280;59316;52.964;7.102;2022-07-24T10:27:04;101696.16;;;29.03;41.71
70758;BME280;59316;52.964;7.102;2022-07-24T10:32:24;101706.94;;;28.76;40.85
70758;BME280;59316;52.964;7.102;2022-07-24T10:43:33;101706.31;;;30.34;38.67
70758;BME280;59316;52.964;7.102;2022-07-24T10:48:53;101705.47;;;29.81;40.11
70758;BME280;59316;52.964;7.102;2022-07-24T10:54:17;101693.00;;;30.26;39.51
70758;BME280;59316;52.964;7.102;2022-07-24T10:59:39;101698.47;;;30.89;38.51
70758;BME280;59316;52.964;7.102;2022-07-24T11:05:27;101706.59;;;30.64;37.94
70758;BME280;59316;52.964;7.102;2022-07-24T11:10:50;101700.09;;;30.72;38.78
70758;BME280;59316;52.964;7.102;2022-07-24T11:21:39;101694.81;;;32.58;35.37
70758;BME280;59316;52.964;7.102;2022-07-24T11:27:13;101696.44;;;30.85;37.71
70758;BME280;59316;52.964;7.102;2022-07-24T11:32:36;101692.50;;;32.12;35.12
70758;BME280;59316;52.964;7.102;2022-07-24T11:37:59;101691.25;;;31.15;37.33
70758;BME280;59316;52.964;7.102;2022-07-24T11:43:19;101686.78;;;32.51;36.07
70758;BME280;59316;52.964;7.102;2022-07-24T11:48:39;101686.50;;;30.40;38.93
70758;BME280;59316;52.964;7.102;2022-07-24T11:53:58;101670.44;;;30.45;39.56
70758;BME280;59316;52.964;7.102;2022-07-24T11:59:29;101656.41;;;31.93;36.65
70758;BME280;59316;52.964;7.102;2022-07-24T12:04:50;101666.91;;;32.39;35.59
70758;BME280;59316;52.964;7.102;2022-07-24T12:10:18;101670.16;;;31.17;36.87
70758;BME280;59316;52.964;7.102;2022-07-24T12:15:38;101654.06;;;31.60;36.27
70758;BME280;59316;52.964;7.102;2022-07-24T12:20:59;101657.97;;;31.70;37.93
70758;BME280;59316;52.964;7.102;2022-07-24T12:26:20;101644.72;;;33.20;35.78
70758;BME280;59316;52.964;7.102;2022-07-24T12:31:39;101637.69;;;32.64;35.36
70758;BME280;59316;52.964;7.102;2022-07-24T12:36:59;101641.41;;;31.91;35.05
70758;BME280;59316;52.964;7.102;2022-07-24T12:42:29;101645.66;;;32.78;35.72
70758;BME280;59316;52.964;7.102;2022-07-24T12:48:09;101614.25;;;32.82;35.03
70758;BME280;59316;52.964;7.102;2022-07-24T12:53:32;101614.97;;;32.35;35.18
70758;BME280;59316;52.964;7.102;2022-07-24T12:58:56;101610.19;;;31.69;35.47
70758;BME280;59316;52.964;7.102;2022-07-24T13:04:20;101593.25;;;32.47;35.14
70758;BME280;59316;52.964;7.102;2022-07-24T13:09:41;101593.66;;;33.22;34.20
70758;BME280;59316;52.964;7.102;2022-07-24T13:15:00;101590.72;;;33.23;33.15
70758;BME280;59316;52.964;7.102;2022-07-24T13:20:20;101597.94;;;34.11;32.45
70758;BME280;59316;52.964;7.102;2022-07-24T13:25:39;101593.38;;;33.59;33.54
70758;BME280;59316;52.964;7.102;2022-07-24T13:30:59;101572.38;;;34.80;30.97
70758;BME280;59316;52.964;7.102;2022-07-24T13:36:19;101571.84;;;33.05;33.21
70758;BME280;59316;52.964;7.102;2022-07-24T13:41:39;101553.53;;;33.93;33.40
70758;BME280;59316;52.964;7.102;2022-07-24T13:46:59;101557.56;;;33.91;32.93
70758;BME280;59316;52.964;7.102;2022-07-24T13:52:18;101559.06;;;33.98;33.20
70758;BME280;59316;52.964;7.102;2022-07-24T13:57:38;101540.03;;;34.33;32.71
70758;BME280;59316;52.964;7.102;2022-07-24T14:02:57;101539.22;;;33.57;33.55
70758;BME280;59316;52.964;7.102;2022-07-24T14:08:17;101534.31;;;34.17;32.23
70758;BME280;59316;52.964;7.102;2022-07-24T14:13:37;101528.69;;;33.20;32.61
70758;BME280;59316;52.964;7.102;2022-07-24T14:18:56;101521.75;;;32.65;35.45
70758;BME280;59316;52.964;7.102;2022-07-24T14:24:19;101525.16;;;32.72;34.95
70758;BME280;59316;52.964;7.102;2022-07-24T14:29:39;101510.28;;;33.51;32.91
70758;BME280;59316;52.964;7.102;2022-07-24T14:34:59;101504.97;;;32.44;33.81
70758;BME280;59316;52.964;7.102;2022-07-24T14:40:19;101491.03;;;33.81;33.38
70758;BME280;59316;52.964;7.102;2022-07-24T14:45:38;101482.09;;;34.93;31.65
70758;BME280;59316;52.964;7.102;2022-07-24T14:50:58;101485.31;;;35.35;32.69
70758;BME280;59316;52.964;7.102;2022-07-24T14:56:17;101480.41;;;34.48;30.91
70758;BME280;59316;52.964;7.102;2022-07-24T15:01:37;101476.16;;;34.23;31.85
70758;BME280;59316;52.964;7.102;2022-07-24T15:06:57;101475.91;;;33.74;33.08
70758;BME280;59316;52.964;7.102;2022-07-24T15:12:17;101465.94;;;33.51;32.83
70758;BME280;59316;52.964;7.102;2022-07-24T15:17:37;101461.03;;;33.64;33.62
70758;BME280;59316;52.964;7.102;2022-07-24T15:22:56;101456.31;;;34.06;32.87
70758;BME280;59316;52.964;7.102;2022-07-24T15:28:16;101458.63;;;33.97;33.05
70758;BME280;59316;52.964;7.102;2022-07-24T15:33:36;101446.19;;;33.72;32.89
70758;BME280;59316;52.964;7.102;2022-07-24T15:38:56;101443.59;;;34.11;33.72
70758;BME280;59316;52.964;7.102;2022-07-24T15:44:15;101430.66;;;34.19;31.92
70758;BME280;59316;52.964;7.102;2022-07-24T15:49:35;101423.25;;;33.97;34.58
70758;BME280;59316;52.964;7.102;2022-07-24T15:54:54;101427.28;;;33.20;34.96
70758;BME280;59316;52.964;7.102;2022-07-24T16:00:14;101422.00;;;32.48;34.80
70758;BME280;59316;52.964;7.102;2022-07-24T16:05:35;101405.19;;;33.16;34.85
70758;BME280;59316;52.964;7.102;2022-07-24T16:10:54;101398.53;;;33.53;35.90
70758;BME280;59316;52.964;7.102;2022-07-24T16:16:14;101400.28;;;33.59;32.90
70758;BME280;59316;52.964;7.102;2022-07-24T16:21:34;101402.84;;;33.65;33.88
70758;BME280;59316;52.964;7.102;2022-07-24T16:26:54;101390.81;;;32.63;36.00
70758;BME280;59316;52.964;7.102;2022-07-24T16:32:14;101386.72;;;33.30;35.80
70758;BME280;59316;52.964;7.102;2022-07-24T16:37:33;101381.16;;;33.54;35.72
70758;BME280;59316;52.964;7.102;2022-07-24T16:42:53;101372.66;;;33.21;37.24
70758;BME280;59316;52.964;7.102;2022-07-24T16:48:12;101358.69;;;33.12;37.09
70758;BME280;59316;52.964;7.102;2022-07-24T16:53:32;101350.09;;;32.92;36.68
70758;BME280;59316;52.964;7.102;2022-07-24T16:58:52;101347.41;;;32.51;37.93
70758;BME280;59316;52.964;7.102;2022-07-24T17:04:11;101346.84;;;32.37;37.05
70758;BME280;59316;52.964;7.102;2022-07-24T17:09:31;101351.44;;;31.35;42.34
70758;BME280;59316;52.964;7.102;2022-07-24T17:14:50;101341.97;;;30.95;42.46
70758;BME280;59316;52.964;7.102;2022-07-24T17:20:10;101342.00;;;31.26;40.89
70758;BME280;59316;52.964;7.102;2022-07-24T17:25:31;101330.94;;;31.09;41.46
70758;BME280;59316;52.964;7.102;2022-07-24T17:30:51;101327.47;;;30.71;43.21
70758;BME280;59316;52.964;7.102;2022-07-24T17:36:11;101325.44;;;30.66;45.63
70758;BME280;59316;52.964;7.102;2022-07-24T17:41:31;101329.13;;;30.53;46.61
70758;BME280;59316;52.964;7.102;2022-07-24T17:46:50;101329.47;;;30.20;47.28
70758;BME280;59316;52.964;7.102;2022-07-24T17:52:10;101325.31;;;29.99;47.51
70758;BME280;59316;52.964;7.102;2022-07-24T17:57:29;101318.63;;;29.76;49.06
70758;BME280;59316;52.964;7.102;2022-07-24T18:02:49;101321.47;;;29.24;50.29
70758;BME280;59316;52.964;7.102;2022-07-24T18:08:09;101326.84;;;28.92;52.43
70758;BME280;59316;52.964;7.102;2022-07-24T18:13:28;101327.66;;;28.34;53.28
70758;BME280;59316;52.964;7.102;2022-07-24T18:18:48;101317.34;;;27.77;57.21
70758;BME280;59316;52.964;7.102;2022-07-24T18:24:07;101308.44;;;26.88;61.57
70758;BME280;59316;52.964;7.102;2022-07-24T18:29:27;101314.34;;;26.28;62.97
70758;BME280;59316;52.964;7.102;2022-07-24T18:34:46;101305.41;;;25.92;65.67
70758;BME280;59316;52.964;7.102;2022-07-24T18:40:07;101299.56;;;25.60;64.96
70758;BME280;59316;52.964;7.102;2022-07-24T18:45:27;101294.75;;;25.34;66.84
70758;BME280;59316;52.964;7.102;2022-07-24T18:50:47;101295.75;;;25.11;69.32
70758;BME280;59316;52.964;7.102;2022-07-24T18:56:07;101301.66;;;24.85;70.14
70758;BME280;59316;52.964;7.102;2022-07-24T19:01:26;101304.16;;;24.57;71.32
70758;BME280;59316;52.964;7.102;2022-07-24T19:06:46;101294.44;;;24.26;73.88
70758;BME280;59316;52.964;7.102;2022-07-24T19:12:07;101298.59;;;23.90;74.84
70758;BME280;59316;52.964;7.102;2022-07-24T19:17:27;101291.50;;;23.59;77.37
70758;BME280;59316;52.964;7.102;2022-07-24T19:22:46;101293.31;;;23.20;79.03
70758;BME280;59316;52.964;7.102;2022-07-24T19:28:06;101288.78;;;22.89;81.56
70758;BME280;59316;52.964;7.102;2022-07-24T19:33:26;101289.59;;;22.58;83.18
70758;BME280;59316;52.964;7.102;2022-07-24T19:38:45;101288.97;;;22.23;84.90
70758;BME280;59316;52.964;7.102;2022-07-24T19:44:05;101296.38;;;21.97;88.21
70758;BME280;59316;52.964;7.102;2022-07-24T19:49:24;101297.41;;;21.63;89.14
70758;BME280;59316;52.964;7.102;2022-07-24T19:54:44;101291.66;;;21.33;90.31
70758;BME280;59316;52.964;7.102;2022-07-24T20:00:05;101282.63;;;21.09;91.48
70758;BME280;59316;52.964;7.102;2022-07-24T20:05:30;101279.25;;;20.90;93.11
70758;BME280;59316;52.964;7.102;2022-07-24T20:10:50;101278.66;;;20.70;94.48
70758;BME280;59316;52.964;7.102;2022-07-24T20:16:09;101278.38;;;20.47;95.37
70758;BME280;59316;52.964;7.102;2022-07-24T20:21:29;101275.63;;;20.30;96.13
70758;BME280;59316;52.964;7.102;2022-07-24T20:26:48;101283.66;;;20.12;96.07
70758;BME280;59316;52.964;7.102;2022-07-24T20:32:08;101276.25;;;19.98;96.06
70758;BME280;59316;52.964;7.102;2022-07-24T20:37:27;101260.38;;;19.88;97.37
70758;BME280;59316;52.964;7.102;2022-07-24T20:42:47;101263.41;;;19.75;98.09
70758;BME280;59316;52.964;7.102;2022-07-24T20:48:06;101252.03;;;19.65;99.23
70758;BME280;59316;52.964;7.102;2022-07-24T20:53:25;101244.38;;;19.44;100.00
70758;BME280;59316;52.964;7.102;2022-07-24T20:58:45;101239.56;;;19.29;100.00
70758;BME280;59316;52.964;7.102;2022-07-24T21:04:04;101236.16;;;19.19;100.00
70758;BME280;59316;52.964;7.102;2022-07-24T21:09:24;101227.13;;;19.12;100.00
70758;BME280;59316;52.964;7.102;2022-07-24T21:14:43;101225.75;;;19.08;100.00
70758;BME280;59316;52.964;7.102;2022-07-24T21:20:03;101220.19;;;19.01;100.00
70758;BME280;59316;52.964;7.102;2022-07-24T21:25:23;101218.44;;;18.92;100.00
70758;BME280;59316;52.964;7.102;2022-07-24T21:30:43;101217.06;;;18.88;100.00
70758;BME280;59316;52.964;7.102;2022-07-24T21:36:03;101206.88;;;18.83;100.00
70758;BME280;59316;52.964;7.102;2022-07-24T21:41:22;101207.47;;;18.77;100.00
70758;BME280;59316;52.964;7.102;2022-07-24T21:46:42;101189.44;;;18.71;100.00
70758;BME280;59316;52.964;7.102;2022-07-24T21:52:01;101187.69;;;18.61;100.00
70758;BME280;59316;52.964;7.102;2022-07-24T21:57:21;101181.06;;;18.47;100.00
70758;BME280;59316;52.964;7.102;2022-07-24T22:02:41;101188.41;;;18.36;100.00
70758;BME280;59316;52.964;7.102;2022-07-24T22:08:01;101186.63;;;18.26;100.00
70758;BME280;59316;52.964;7.102;2022-07-24T22:13:21;101174.75;;;18.21;100.00
70758;BME280;59316;52.964;7.102;2022-07-24T22:18:41;101171.72;;;18.15;100.00
70758;BME280;59316;52.964;7.102;2022-07-24T22:24:01;101163.34;;;18.10;100.00
70758;BME280;59316;52.964;7.102;2022-07-24T22:29:20;101165.91;;;18.02;100.00
70758;BME280;59316;52.964;7.102;2022-07-24T22:34:40;101161.41;;;17.93;100.00
70758;BME280;59316;52.964;7.102;2022-07-24T22:40:04;101160.19;;;17.87;100.00
70758;BME280;59316;52.964;7.102;2022-07-24T22:45:28;101162.03;;;17.87;100.00
70758;BME280;59316;52.964;7.102;2022-07-24T22:50:48;101164.13;;;17.83;100.00
70758;BME280;59316;52.964;7.102;2022-07-24T22:56:07;101153.25;;;17.76;100.00
70758;BME280;59316;52.964;7.102;2022-07-24T23:01:27;101149.50;;;17.69;100.00
70758;BME280;59316;52.964;7.102;2022-07-24T23:06:47;101149.66;;;17.67;100.00
70758;BME280;59316;52.964;7.102;2022-07-24T23:12:06;101140.97;;;17.65;100.00
70758;BME280;59316;52.964;7.102;2022-07-24T23:17:26;101133.56;;;17.69;100.00
70758;BME280;59316;52.964;7.102;2022-07-24T23:22:46;101136.06;;;17.71;100.00
70758;BME280;59316;52.964;7.102;2022-07-24T23:28:07;101128.66;;;17.74;100.00
70758;BME280;59316;52.964;7.102;2022-07-24T23:33:26;101121.44;;;17.66;100.00
70758;BME280;59316;52.964;7.102;2022-07-24T23:38:46;101120.63;;;17.56;100.00
70758;BME280;59316;52.964;7.102;2022-07-24T23:44:06;101116.31;;;17.45;100.00
70758;BME280;59316;52.964;7.102;2022-07-24T23:49:25;101100.72;;;17.32;100.00
70758;BME280;59316;52.964;7.102;2022-07-24T23:54:45;101100.44;;;17.26;100.00
